createdAt,value
2018-12-31T00:00:29.791Z,85.96
2018-12-31T00:02:56.485Z,85.72
2018-12-31T00:05:23.326Z,85.79
2018-12-31T00:07:50.072Z,85.23
2018-12-31T00:10:16.826Z,85.01
2018-12-31T00:12:43.804Z,84.88
2018-12-31T00:15:10.499Z,85.19
2018-12-31T00:17:37.355Z,85.25
2018-12-31T00:20:04.444Z,84.84
2018-12-31T00:22:31.644Z,85.18
2018-12-31T00:24:58.687Z,84.42
2018-12-31T00:27:25.431Z,84.65
2018-12-31T00:29:52.163Z,84.33
2018-12-31T00:32:19.704Z,84.51
2018-12-31T00:34:46.462Z,84.92
2018-12-31T00:37:13.188Z,85.10
2018-12-31T00:39:39.949Z,85.40
2018-12-31T00:42:06.686Z,85.24
2018-12-31T00:44:33.741Z,84.98
2018-12-31T00:47:00.524Z,83.91
2018-12-31T00:49:29.424Z,83.60
2018-12-31T00:51:56.152Z,84.00
2018-12-31T00:54:23.301Z,83.93
2018-12-31T00:56:52.281Z,83.62
2018-12-31T00:59:19.142Z,83.89
2018-12-31T01:01:45.913Z,83.57
2018-12-31T01:04:12.679Z,83.28
2018-12-31T01:06:39.388Z,83.54
2018-12-31T01:09:06.437Z,83.47
2018-12-31T01:11:33.269Z,83.16
2018-12-31T01:14:00.292Z,83.18
2018-12-31T01:16:27.026Z,83.11
2018-12-31T01:18:53.754Z,83.35
2018-12-31T01:21:20.519Z,83.65
2018-12-31T01:23:47.279Z,84.14
2018-12-31T01:26:14.426Z,84.49
2018-12-31T01:28:43.755Z,84.46
2018-12-31T01:31:10.505Z,84.43
2018-12-31T01:33:39.254Z,84.56
2018-12-31T01:36:05.968Z,83.85
2018-12-31T01:38:32.720Z,83.79
2018-12-31T01:40:59.663Z,84.13
2018-12-31T01:43:26.360Z,84.33
2018-12-31T01:45:53.072Z,84.31
2018-12-31T01:48:19.805Z,84.35
2018-12-31T01:50:47.283Z,84.15
2018-12-31T01:53:13.999Z,84.01
2018-12-31T01:55:40.703Z,84.38
2018-12-31T01:58:07.452Z,84.34
2018-12-31T02:00:34.197Z,84.33
2018-12-31T02:03:01.525Z,84.55
2018-12-31T02:05:28.231Z,84.40
2018-12-31T02:07:55.031Z,83.61
2018-12-31T02:10:22.015Z,83.80
2018-12-31T02:12:48.734Z,83.32
2018-12-31T02:15:15.438Z,83.73
2018-12-31T02:17:42.530Z,83.77
2018-12-31T02:20:09.709Z,83.97
2018-12-31T02:22:36.434Z,84.33
2018-12-31T02:25:03.127Z,83.72
2018-12-31T02:27:30.294Z,82.99
2018-12-31T02:29:57.004Z,83.01
2018-12-31T02:32:23.725Z,83.04
2018-12-31T02:34:52.319Z,83.27
2018-12-31T02:37:21.978Z,83.54
2018-12-31T02:39:48.678Z,83.35
2018-12-31T02:42:15.362Z,83.02
2018-12-31T02:44:42.454Z,83.36
2018-12-31T02:47:09.512Z,83.18
2018-12-31T02:49:36.224Z,83.40
2018-12-31T02:52:03.160Z,83.04
2018-12-31T02:54:29.871Z,82.71
2018-12-31T02:56:56.555Z,82.74
2018-12-31T02:59:23.584Z,83.29
2018-12-31T03:01:50.307Z,83.05
2018-12-31T03:04:16.984Z,83.52
2018-12-31T03:06:43.891Z,83.72
2018-12-31T03:09:10.595Z,83.40
2018-12-31T03:11:37.649Z,84.24
2018-12-31T03:14:06.824Z,84.94
2018-12-31T03:16:33.530Z,85.24
2018-12-31T03:19:00.260Z,84.63
2018-12-31T03:21:26.995Z,84.71
2018-12-31T03:23:53.738Z,84.30
2018-12-31T03:26:20.505Z,83.72
2018-12-31T03:28:47.657Z,83.39
2018-12-31T03:31:14.371Z,83.90
2018-12-31T03:33:42.799Z,84.46
2018-12-31T03:36:09.505Z,84.60
2018-12-31T03:38:36.180Z,84.15
2018-12-31T03:41:03.144Z,83.23
2018-12-31T03:43:29.830Z,82.67
2018-12-31T03:45:56.525Z,82.80
2018-12-31T03:48:23.246Z,82.76
2018-12-31T03:50:49.987Z,83.31
2018-12-31T03:53:17.171Z,84.06
2018-12-31T03:55:43.858Z,84.14
2018-12-31T03:58:10.561Z,84.43
2018-12-31T04:00:37.385Z,84.57
2018-12-31T04:03:04.073Z,84.37
2018-12-31T04:05:30.805Z,84.38
2018-12-31T04:07:57.503Z,84.50
2018-12-31T04:10:24.197Z,84.50
2018-12-31T04:12:50.907Z,84.18
2018-12-31T04:15:19.556Z,84.32
2018-12-31T04:17:46.235Z,84.62
2018-12-31T04:20:12.944Z,85.03
2018-12-31T04:22:42.177Z,84.65
2018-12-31T04:25:08.884Z,84.88
2018-12-31T04:27:35.565Z,84.49
2018-12-31T04:30:02.264Z,84.59
2018-12-31T04:32:28.992Z,84.70
2018-12-31T04:34:56.090Z,84.35
2018-12-31T04:37:22.828Z,83.90
2018-12-31T04:39:49.514Z,83.70
2018-12-31T04:42:16.234Z,83.75
2018-12-31T04:44:42.925Z,83.72
2018-12-31T04:47:09.656Z,84.08
2018-12-31T04:49:36.344Z,83.73
2018-12-31T04:52:03.095Z,83.48
2018-12-31T04:54:29.871Z,83.80
2018-12-31T04:56:56.670Z,83.07
2018-12-31T04:59:23.642Z,83.26
2018-12-31T05:01:50.332Z,83.37
2018-12-31T05:04:17.022Z,83.71
2018-12-31T05:06:43.748Z,83.98
2018-12-31T05:09:10.437Z,83.92
2018-12-31T05:11:37.158Z,84.22
2018-12-31T05:14:03.830Z,84.12
2018-12-31T05:16:30.548Z,84.01
2018-12-31T05:18:57.256Z,83.79
2018-12-31T05:21:24.434Z,83.79
2018-12-31T05:23:53.037Z,83.67
2018-12-31T05:26:20.130Z,83.76
2018-12-31T05:28:46.860Z,83.60
2018-12-31T05:31:13.540Z,83.35
2018-12-31T05:33:40.251Z,83.36
2018-12-31T05:36:06.954Z,83.64
2018-12-31T05:38:33.670Z,83.77
2018-12-31T05:41:00.375Z,83.27
2018-12-31T05:43:27.116Z,83.17
2018-12-31T05:45:53.803Z,83.47
2018-12-31T05:48:20.501Z,83.84
2018-12-31T05:50:47.297Z,83.27
2018-12-31T05:53:14.712Z,83.20
2018-12-31T05:55:42.931Z,82.80
2018-12-31T05:58:09.629Z,82.68
2018-12-31T06:00:36.643Z,83.04
2018-12-31T06:03:03.713Z,83.18
2018-12-31T06:05:30.419Z,83.19
2018-12-31T06:07:57.108Z,83.37
2018-12-31T06:10:23.836Z,83.70
2018-12-31T06:12:50.632Z,83.57
2018-12-31T06:15:17.352Z,83.51
2018-12-31T06:17:44.051Z,84.21
2018-12-31T06:20:10.763Z,84.74
2018-12-31T06:22:37.445Z,84.61
2018-12-31T06:25:04.122Z,84.08
2018-12-31T06:27:30.836Z,83.89
2018-12-31T06:29:57.541Z,83.54
2018-12-31T06:32:24.259Z,83.76
2018-12-31T06:34:50.986Z,84.10
2018-12-31T06:37:19.104Z,84.07
2018-12-31T06:39:45.785Z,84.46
2018-12-31T06:42:12.542Z,84.84
2018-12-31T06:44:39.359Z,84.91
2018-12-31T06:47:06.050Z,85.11
2018-12-31T06:49:32.917Z,84.75
2018-12-31T06:51:59.590Z,84.19
2018-12-31T06:54:28.913Z,84.26
2018-12-31T06:56:56.082Z,84.40
2018-12-31T06:59:22.812Z,83.91
2018-12-31T07:01:51.431Z,83.85
2018-12-31T07:04:18.101Z,84.11
2018-12-31T07:06:44.792Z,84.27
2018-12-31T07:09:11.836Z,84.51
2018-12-31T07:11:38.562Z,84.31
2018-12-31T07:14:05.265Z,84.57
2018-12-31T07:16:33.901Z,84.72
2018-12-31T07:19:00.619Z,85.00
2018-12-31T07:21:27.436Z,85.16
2018-12-31T07:23:54.156Z,84.93
2018-12-31T07:26:22.049Z,84.56
2018-12-31T07:28:51.526Z,84.47
2018-12-31T07:31:18.197Z,83.63
2018-12-31T07:33:44.916Z,84.33
2018-12-31T07:36:11.630Z,83.60
2018-12-31T07:38:38.317Z,84.21
2018-12-31T07:41:05.163Z,84.08
2018-12-31T07:43:32.015Z,84.00
2018-12-31T07:45:58.709Z,84.20
2018-12-31T07:48:25.450Z,83.32
2018-12-31T07:50:52.266Z,83.68
2018-12-31T07:53:18.982Z,83.75
2018-12-31T07:55:45.654Z,83.94
2018-12-31T07:58:12.874Z,83.52
2018-12-31T08:00:39.560Z,83.54
2018-12-31T08:03:08.796Z,83.67
2018-12-31T08:05:37.578Z,83.38
2018-12-31T08:08:05.374Z,83.31
2018-12-31T08:10:32.113Z,83.58
2018-12-31T08:12:58.815Z,83.62
2018-12-31T08:15:25.536Z,83.24
2018-12-31T08:17:55.382Z,83.23
2018-12-31T08:20:22.149Z,82.85
2018-12-31T08:22:48.881Z,82.77
2018-12-31T08:25:15.570Z,82.50
2018-12-31T08:27:42.290Z,82.57
2018-12-31T08:30:09.092Z,82.75
2018-12-31T08:32:35.781Z,83.41
2018-12-31T08:35:02.914Z,83.76
2018-12-31T08:37:31.037Z,83.12
2018-12-31T08:39:57.810Z,83.21
2018-12-31T08:42:24.498Z,83.20
2018-12-31T08:44:53.484Z,83.00
2018-12-31T08:47:20.168Z,82.80
2018-12-31T08:49:46.902Z,83.04
2018-12-31T08:52:13.624Z,82.51
2018-12-31T08:54:42.442Z,83.16
2018-12-31T08:57:09.237Z,83.16
2018-12-31T08:59:36.762Z,82.67
2018-12-31T09:02:03.475Z,82.86
2018-12-31T09:04:30.170Z,82.56
2018-12-31T09:06:56.877Z,83.03
2018-12-31T09:09:25.049Z,83.40
2018-12-31T09:11:51.709Z,83.09
2018-12-31T09:14:21.214Z,83.20
2018-12-31T09:16:47.908Z,83.38
2018-12-31T09:19:14.638Z,83.43
2018-12-31T09:21:41.331Z,83.78
2018-12-31T09:24:08.091Z,83.21
2018-12-31T09:26:34.756Z,83.38
2018-12-31T09:29:01.429Z,83.05
2018-12-31T09:31:28.187Z,82.19
2018-12-31T09:33:55.928Z,82.26
2018-12-31T09:36:23.026Z,82.76
2018-12-31T09:38:49.732Z,82.74
2018-12-31T09:41:16.905Z,82.78
2018-12-31T09:43:43.672Z,83.05
2018-12-31T09:46:10.499Z,82.85
2018-12-31T09:48:39.056Z,82.93
2018-12-31T09:51:05.992Z,83.72
2018-12-31T09:53:32.807Z,83.34
2018-12-31T09:55:59.561Z,83.45
2018-12-31T09:58:26.332Z,82.64
2018-12-31T10:00:53.369Z,82.62
2018-12-31T10:03:20.430Z,82.14
2018-12-31T10:05:47.240Z,82.23
2018-12-31T10:08:13.982Z,82.56
2018-12-31T10:10:40.737Z,83.09
2018-12-31T10:13:07.426Z,83.06
2018-12-31T10:15:34.129Z,83.29
2018-12-31T10:18:00.950Z,82.86
2018-12-31T10:20:27.793Z,82.66
2018-12-31T10:22:54.773Z,82.80
2018-12-31T10:25:21.560Z,83.09
2018-12-31T10:27:48.299Z,83.51
2018-12-31T10:30:15.192Z,83.44
2018-12-31T10:32:41.857Z,83.57
2018-12-31T10:35:08.611Z,83.53
2018-12-31T10:37:35.354Z,82.93
2018-12-31T10:40:02.118Z,82.71
2018-12-31T10:42:28.859Z,81.96
2018-12-31T10:44:55.572Z,81.96
2018-12-31T10:47:22.332Z,82.15
2018-12-31T10:49:49.091Z,82.33
2018-12-31T10:52:15.875Z,82.36
2018-12-31T10:54:42.614Z,82.22
2018-12-31T10:57:09.282Z,82.31
2018-12-31T10:59:35.992Z,82.76
2018-12-31T11:02:02.860Z,83.12
2018-12-31T11:04:29.580Z,82.79
2018-12-31T11:06:56.297Z,83.27
2018-12-31T11:09:23.115Z,83.13
2018-12-31T11:11:50.027Z,82.77
2018-12-31T11:14:16.777Z,82.53
2018-12-31T11:16:43.475Z,82.76
2018-12-31T11:19:10.222Z,82.56
2018-12-31T11:21:37.191Z,82.44
2018-12-31T11:24:03.993Z,82.91
2018-12-31T11:26:30.994Z,83.05
2018-12-31T11:28:57.913Z,82.87
2018-12-31T11:31:30.287Z,83.23
2018-12-31T11:33:53.274Z,83.23
2018-12-31T11:36:20.066Z,82.93
2018-12-31T11:38:47.007Z,82.40
2018-12-31T11:41:15.445Z,82.38
2018-12-31T11:43:42.193Z,82.21
2018-12-31T11:46:08.957Z,82.23
2018-12-31T11:48:35.695Z,81.99
2018-12-31T11:51:02.998Z,81.84
2018-12-31T11:53:29.870Z,81.57
2018-12-31T11:55:56.834Z,81.62
2018-12-31T11:58:23.546Z,81.33
2018-12-31T12:00:50.598Z,81.04
2018-12-31T12:03:17.471Z,81.40
2018-12-31T12:05:44.174Z,81.59
2018-12-31T12:08:11.058Z,81.66
2018-12-31T12:10:38.104Z,81.78
2018-12-31T12:13:04.937Z,82.45
2018-12-31T12:15:31.681Z,82.43
2018-12-31T12:17:58.689Z,82.43
2018-12-31T12:20:25.441Z,82.74
2018-12-31T12:22:52.247Z,82.83
2018-12-31T12:25:18.946Z,83.09
2018-12-31T12:27:45.730Z,83.22
2018-12-31T12:30:12.549Z,83.56
2018-12-31T12:32:39.744Z,83.62
2018-12-31T12:35:06.446Z,83.81
2018-12-31T12:37:33.183Z,83.94
2018-12-31T12:40:00.266Z,84.72
2018-12-31T12:42:27.158Z,84.55
2018-12-31T12:44:53.914Z,84.90
2018-12-31T12:47:21.248Z,84.10
2018-12-31T12:49:49.188Z,84.05
2018-12-31T12:52:16.064Z,83.86
2018-12-31T12:54:42.899Z,83.77
2018-12-31T12:57:10.027Z,83.87
2018-12-31T12:59:36.754Z,84.18
2018-12-31T13:02:03.517Z,83.97
2018-12-31T13:04:30.629Z,84.45
2018-12-31T13:06:57.479Z,84.28
2018-12-31T13:09:26.197Z,84.63
2018-12-31T13:11:53.005Z,84.82
2018-12-31T13:14:22.663Z,84.92
2018-12-31T13:16:49.382Z,84.69
2018-12-31T13:19:16.155Z,84.86
2018-12-31T13:21:43.286Z,84.87
2018-12-31T13:24:10.139Z,84.98
2018-12-31T13:26:43.549Z,84.96
2018-12-31T13:29:05.831Z,84.85
2018-12-31T13:31:33.201Z,84.74
2018-12-31T13:33:59.971Z,84.73
2018-12-31T13:36:27.068Z,84.78
2018-12-31T13:38:53.818Z,84.59
2018-12-31T13:41:20.614Z,84.37
2018-12-31T13:43:47.339Z,84.35
2018-12-31T13:46:14.089Z,84.43
2018-12-31T13:48:41.215Z,84.00
2018-12-31T13:51:08.011Z,84.60
2018-12-31T13:53:34.885Z,84.87
2018-12-31T13:56:04.678Z,84.72
2018-12-31T13:58:31.414Z,84.53
2018-12-31T14:00:58.137Z,84.90
2018-12-31T14:03:24.993Z,85.09
2018-12-31T14:05:51.906Z,85.12
2018-12-31T14:08:18.640Z,84.95
2018-12-31T14:10:48.971Z,85.19
2018-12-31T14:13:15.709Z,84.98
2018-12-31T14:15:42.438Z,85.16
2018-12-31T14:18:09.177Z,84.67
2018-12-31T14:20:35.928Z,84.38
2018-12-31T14:23:02.945Z,84.29
2018-12-31T14:25:29.858Z,84.33
2018-12-31T14:27:58.228Z,84.61
2018-12-31T14:30:24.967Z,84.59
2018-12-31T14:32:52.016Z,84.64
2018-12-31T14:35:20.134Z,84.52
2018-12-31T14:37:48.718Z,85.15
2018-12-31T14:40:15.541Z,85.09
2018-12-31T14:42:42.282Z,84.48
2018-12-31T14:45:09.043Z,84.06
2018-12-31T14:47:35.775Z,83.81
2018-12-31T14:50:03.045Z,84.35
2018-12-31T14:52:30.228Z,84.64
2018-12-31T14:54:56.933Z,84.38
2018-12-31T14:57:24.058Z,84.48
2018-12-31T14:59:53.060Z,84.32
2018-12-31T15:02:19.769Z,84.17
2018-12-31T15:04:46.493Z,84.29
2018-12-31T15:07:13.421Z,84.32
2018-12-31T15:09:40.124Z,84.96
2018-12-31T15:12:09.625Z,84.87
2018-12-31T15:14:36.553Z,84.99
2018-12-31T15:17:04.642Z,84.54
2018-12-31T15:19:31.591Z,84.48
2018-12-31T15:21:58.733Z,84.45
2018-12-31T15:24:25.577Z,84.48
2018-12-31T15:26:52.614Z,84.57
2018-12-31T15:29:19.363Z,84.37
2018-12-31T15:31:46.110Z,84.44
2018-12-31T15:34:14.758Z,84.42
2018-12-31T15:36:41.754Z,84.37
2018-12-31T15:39:08.543Z,84.71
2018-12-31T15:41:35.240Z,85.16
2018-12-31T15:44:02.072Z,85.58
2018-12-31T15:46:30.107Z,85.82
2018-12-31T15:48:57.670Z,86.07
2018-12-31T15:51:24.648Z,86.27
2018-12-31T15:53:51.465Z,86.20
2018-12-31T15:56:19.959Z,85.69
2018-12-31T15:58:46.706Z,85.21
2018-12-31T16:01:13.970Z,85.38
2018-12-31T16:03:40.817Z,85.10
2018-12-31T16:06:07.946Z,84.99
2018-12-31T16:08:35.303Z,85.09
2018-12-31T16:11:03.269Z,84.81
2018-12-31T16:13:30.039Z,85.26
2018-12-31T16:15:56.873Z,85.42
2018-12-31T16:18:23.750Z,85.57
2018-12-31T16:20:50.659Z,85.37
2018-12-31T16:23:17.382Z,85.51
2018-12-31T16:25:44.369Z,85.43
2018-12-31T16:28:12.911Z,85.54
2018-12-31T16:30:41.509Z,85.37
2018-12-31T16:33:08.396Z,85.69
2018-12-31T16:35:35.069Z,85.54
2018-12-31T16:38:01.812Z,85.97
2018-12-31T16:40:28.514Z,86.00
2018-12-31T16:42:55.292Z,85.63
2018-12-31T16:45:22.032Z,85.53
2018-12-31T16:47:50.909Z,85.65
2018-12-31T16:50:21.457Z,85.62
2018-12-31T16:52:48.186Z,85.80
2018-12-31T16:55:15.088Z,86.26
2018-12-31T16:57:41.948Z,86.19
2018-12-31T17:00:11.200Z,86.21
2018-12-31T17:02:37.970Z,86.07
2018-12-31T17:05:05.007Z,86.09
2018-12-31T17:07:31.947Z,85.97
2018-12-31T17:09:58.770Z,85.70
2018-12-31T17:12:25.626Z,85.74
2018-12-31T17:14:52.432Z,85.37
2018-12-31T17:17:19.527Z,85.56
2018-12-31T17:19:46.734Z,85.56
2018-12-31T17:22:13.474Z,85.57
2018-12-31T17:24:40.183Z,85.50
2018-12-31T17:27:07.302Z,85.65
2018-12-31T17:29:34.664Z,85.66
2018-12-31T17:32:01.437Z,85.83
2018-12-31T17:34:28.136Z,85.73
2018-12-31T17:36:55.079Z,85.71
2018-12-31T17:39:21.892Z,85.82
2018-12-31T17:41:48.913Z,86.17
2018-12-31T17:44:16.463Z,85.84
2018-12-31T17:46:43.632Z,85.87
2018-12-31T17:49:10.758Z,85.82
2018-12-31T17:51:37.565Z,85.61
2018-12-31T17:54:04.287Z,85.15
2018-12-31T17:59:30.827Z,85.42
2018-12-31T18:01:57.847Z,85.27
2018-12-31T18:04:25.502Z,85.61
2018-12-31T18:06:53.696Z,85.57
2018-12-31T18:09:20.426Z,85.09
2018-12-31T18:11:49.429Z,84.75
2018-12-31T18:14:16.327Z,84.60
2018-12-31T18:16:43.043Z,84.71
2018-12-31T18:19:09.857Z,84.68
2018-12-31T18:21:37.312Z,84.67
2018-12-31T18:24:05.573Z,84.53
2018-12-31T18:26:32.530Z,84.70
2018-12-31T18:28:59.276Z,84.68
2018-12-31T18:31:27.015Z,84.71
2018-12-31T18:33:53.711Z,84.51
2018-12-31T18:36:21.013Z,84.88
2018-12-31T18:38:47.720Z,85.03
2018-12-31T18:41:14.416Z,85.10
2018-12-31T18:43:43.488Z,84.51
2018-12-31T18:46:10.276Z,84.86
2018-12-31T18:48:37.290Z,84.81
2018-12-31T18:51:04.943Z,84.75
2018-12-31T18:53:31.646Z,84.94
2018-12-31T18:55:58.397Z,84.72
2018-12-31T18:58:25.231Z,84.78
2018-12-31T19:00:51.923Z,84.90
2018-12-31T19:03:20.877Z,84.84
2018-12-31T19:05:47.617Z,85.35
2018-12-31T19:08:14.317Z,85.03
2018-12-31T19:10:41.053Z,85.20
2018-12-31T19:13:07.866Z,85.41
2018-12-31T19:15:34.608Z,84.99
2018-12-31T19:18:04.147Z,85.45
2018-12-31T19:20:32.760Z,85.27
2018-12-31T19:22:59.524Z,85.04
2018-12-31T19:25:26.268Z,85.19
2018-12-31T19:27:53.073Z,85.36
2018-12-31T19:30:19.770Z,85.58
2018-12-31T19:32:46.582Z,85.71
2018-12-31T19:35:13.501Z,85.80
2018-12-31T19:37:40.214Z,85.69
2018-12-31T19:40:06.951Z,85.56
2018-12-31T19:42:33.931Z,85.35
2018-12-31T19:45:02.650Z,85.51
2018-12-31T19:47:29.357Z,85.64
2018-12-31T19:49:56.402Z,85.36
2018-12-31T19:52:23.854Z,85.42
2018-12-31T19:54:50.656Z,85.55
2018-12-31T19:57:17.486Z,85.23
2018-12-31T19:59:44.177Z,85.14
2018-12-31T20:02:11.033Z,84.97
2018-12-31T20:04:37.762Z,84.96
2018-12-31T20:07:04.601Z,85.05
2018-12-31T20:09:31.368Z,85.09
2018-12-31T20:11:58.226Z,84.97
2018-12-31T20:14:25.087Z,85.15
2018-12-31T20:16:51.843Z,84.92
2018-12-31T20:19:18.971Z,85.16
2018-12-31T20:21:45.942Z,85.23
2018-12-31T20:24:14.638Z,85.17
2018-12-31T20:26:41.885Z,85.28
2018-12-31T20:29:08.865Z,85.35
2018-12-31T20:31:35.528Z,85.19
2018-12-31T20:34:03.034Z,85.14
2018-12-31T20:36:29.784Z,84.88
2018-12-31T20:38:57.950Z,84.75
2018-12-31T20:41:24.624Z,84.68
2018-12-31T20:43:51.732Z,84.92
2018-12-31T20:46:20.386Z,85.22
2018-12-31T20:48:47.384Z,85.30
2018-12-31T20:51:14.568Z,84.89
2018-12-31T20:53:41.522Z,84.78
2018-12-31T20:56:08.274Z,84.72
2018-12-31T20:58:35.782Z,84.68
2018-12-31T21:01:02.637Z,84.70
2018-12-31T21:03:29.350Z,84.83
2018-12-31T21:05:59.601Z,85.07
2018-12-31T21:08:26.644Z,85.12
2018-12-31T21:10:53.349Z,85.19
2018-12-31T21:13:20.077Z,85.28
2018-12-31T21:15:46.869Z,85.29
2018-12-31T21:18:13.558Z,85.30
2018-12-31T21:20:40.714Z,85.25
2018-12-31T21:23:07.396Z,85.39
2018-12-31T21:25:34.084Z,85.52
2018-12-31T21:28:00.809Z,85.54
2018-12-31T21:30:27.495Z,85.70
2018-12-31T21:32:54.261Z,85.38
2018-12-31T21:35:21.103Z,85.29
2018-12-31T21:37:47.891Z,84.99
2018-12-31T21:40:14.614Z,84.94
2018-12-31T21:42:41.565Z,85.17
2018-12-31T21:45:09.837Z,85.52
2018-12-31T21:47:37.979Z,85.51
2018-12-31T21:50:05.075Z,85.54
2018-12-31T21:52:33.983Z,85.50
2018-12-31T21:55:01.023Z,85.25
2018-12-31T21:57:30.473Z,85.12
2018-12-31T21:59:57.240Z,84.92
2018-12-31T22:02:23.914Z,84.96
2018-12-31T22:04:51.259Z,84.86
2018-12-31T22:07:17.993Z,84.99
2018-12-31T22:09:44.699Z,85.38
2018-12-31T22:12:11.396Z,85.07
2018-12-31T22:14:38.104Z,84.97
2018-12-31T22:17:04.960Z,84.85
2018-12-31T22:19:31.626Z,84.83
2018-12-31T22:21:58.338Z,85.30
2018-12-31T22:24:25.059Z,85.19
2018-12-31T22:26:51.839Z,85.42
2018-12-31T22:29:18.956Z,85.05
2018-12-31T22:31:46.046Z,85.10
2018-12-31T22:34:12.854Z,84.99
2018-12-31T22:36:40.108Z,84.86
2018-12-31T22:39:07.142Z,85.12
2018-12-31T22:41:33.890Z,84.81
2018-12-31T22:44:00.958Z,84.96
2018-12-31T22:46:28.479Z,84.86
2018-12-31T22:48:55.251Z,85.17
2018-12-31T22:51:22.285Z,85.27
2018-12-31T22:53:49.231Z,85.24
2018-12-31T22:56:16.299Z,85.23
2018-12-31T22:58:43.217Z,85.48
2018-12-31T23:01:10.190Z,85.28
2018-12-31T23:03:37.108Z,85.42
2018-12-31T23:06:05.511Z,85.31
2018-12-31T23:08:32.755Z,85.41
2018-12-31T23:11:00.200Z,85.27
2018-12-31T23:13:32.341Z,85.25
2018-12-31T23:15:59.316Z,85.52
2018-12-31T23:18:27.012Z,85.62
2018-12-31T23:20:55.401Z,85.43
2018-12-31T23:23:23.580Z,85.29
2018-12-31T23:25:50.625Z,85.16
2018-12-31T23:28:17.833Z,85.09
2018-12-31T23:30:44.968Z,85.10
2018-12-31T23:33:12.154Z,85.05
2018-12-31T23:35:38.995Z,84.62
2018-12-31T23:38:05.795Z,84.64
2018-12-31T23:40:32.506Z,84.94
2018-12-31T23:43:06.144Z,84.62
2018-12-31T23:45:27.911Z,84.44
2018-12-31T23:47:55.410Z,83.96
2018-12-31T23:50:22.241Z,84.00
2018-12-31T23:52:49.315Z,84.34
2018-12-31T23:55:16.056Z,84.37
2018-12-31T23:57:43.103Z,84.41
